Terminal Aerodrome Forecast
Issued by NWS

Home | Current Version | Previous Version | Text Only | Print | Product List | Glossary On
Versions: 1 2 3 4 5 6 7 8 9 10 11 12 13 14 15 16 17 18
000
FTUS41 KGYX 012320
TAFHIE
TAF
KHIE 012320Z 0200/0224 09004KT P6SM OVC025
     FM020500 09003KT 4SM BR OVC015
     FM020700 07003KT 1/4SM FG OVC001
     FM021200 07003KT 4SM BR SCT007 OVC015
     FM021300 07003KT P6SM OVC025
     FM021400 06003KT P6SM BKN120=

USA.gov is the U.S. government's official web portal to all federal, state and local government web resources and services.